Home > Products > Valid Products > TAF

000
FTUS41 KPBZ 290500
TAFPIT
TAF
KPIT 290529Z 2906/3012 16005KT P6SM BKN100
     FM291800 18010KT P6SM BKN035=



000
FTUS41 KPBZ 290500
TAFHLG
TAF
KHLG 290529Z 2906/3006 17006KT P6SM BKN080
     FM291800 18010KT P6SM BKN035=



000
FTUS41 KPBZ 290500
TAFZZV
TAF
KZZV 290529Z 2906/3006 18004KT P6SM BKN100
     FM291600 19008KT P6SM BKN035=



000
FTUS41 KPBZ 290500
TAFBVI
TAF
KBVI 290529Z 2906/3006 16004KT P6SM BKN100
     FM291800 18008KT P6SM BKN035
      AMD NOT SKED=



000
FTUS41 KPBZ 290500
TAFDUJ
TAF
KDUJ 290529Z 2906/3006 17005KT 6SM -SHSN SCT025 OVC050
      TEMPO 2906/2908 2SM -SHSN OVC025
     FM290800 17005KT P6SM BKN080
     FM291700 18010KT P6SM OVC035=



000
FTUS41 KPBZ 290500
TAFAGC
TAF
KAGC 290529Z 2906/3006 16004KT P6SM BKN100
     FM291800 18008KT P6SM BKN035=



000
FTUS41 KPBZ 290500
TAFLBE
TAF
KLBE 290529Z 2906/3006 16004KT P6SM BKN100
     FM291800 18008KT P6SM BKN035=



000
FTUS41 KPBZ 290500
TAFMGW
TAF
KMGW 290529Z 2906/3006 16004KT P6SM BKN100
     FM291800 18008KT P6SM BKN035=



000
FTUS41 KPBZ 290300 AAB
TAFDUJ
TAF AMD
KDUJ 290334Z 2904/2924 17005KT P6SM -SN SCT025 OVC050
      TEMPO 2904/2906 2SM -SN BKN025
     FM290800 17005KT P6SM BKN080
     FM291700 18010KT P6SM OVC035=



000
FTUS41 KPBZ 290300 AAB
TAFDUJ
TAF AMD
KDUJ 290334Z 2904/2924 17005KT P6SM -SN SCT025 OVC050
      TEMPO 2904/2906 2SM -SN BKN025
     FM290800 17005KT P6SM BKN080
     FM291700 18010KT P6SM OVC035=



000
FTUS41 KPBZ 290300 AAB
TAFHLG
TAF AMD
KHLG 290329Z 2903/2924 17006KT P6SM BKN080
      TEMPO 2904/2906 -SHSN
     FM291800 18010KT P6SM BKN035=



000
FTUS41 KPBZ 290300 AAB
TAFHLG
TAF AMD
KHLG 290329Z 2903/2924 17006KT P6SM BKN080
      TEMPO 2904/2906 -SHSN
     FM291800 18010KT P6SM BKN035=



000
FTUS41 KPBZ 290300 AAA
TAFDUJ
TAF AMD
KDUJ 290314Z 2903/2924 18005KT P6SM -SHSN SCT025 BKN050
     FM290700 17005KT P6SM BKN080
     FM291200 16007KT P6SM OVC035=



000
FTUS41 KPBZ 290300 AAA
TAFDUJ
TAF AMD
KDUJ 290314Z 2903/2924 18005KT P6SM -SHSN SCT025 BKN050
     FM290700 17005KT P6SM BKN080
     FM291200 16007KT P6SM OVC035=



000
FTUS41 KPBZ 290200 AAA
TAFPIT
TAF AMD
KPIT 290257Z 2903/3006 16005KT P6SM SCT035 BKN100
      TEMPO 2903/2906 -SHSN
     FM291800 18010KT P6SM BKN035=



000
FTUS41 KPBZ 290200 AAA
TAFPIT
TAF AMD
KPIT 290257Z 2903/3006 16005KT P6SM SCT035 BKN100
      TEMPO 2903/2906 -SHSN
     FM291800 18010KT P6SM BKN035=



000
FTUS41 KPBZ 290200 AAA
TAFHLG
TAF AMD
KHLG 290200Z 2902/2924 16005KT P6SM SCT035 BKN100
      TEMPO 2902/2904 4SM -SHSN BKN035
     FM291800 18008KT P6SM BKN035=



000
FTUS41 KPBZ 290200 AAA
TAFHLG
TAF AMD
KHLG 290200Z 2902/2924 16005KT P6SM SCT035 BKN100
      TEMPO 2902/2904 4SM -SHSN BKN035
     FM291800 18008KT P6SM BKN035=



000
FTUS41 KPBZ 282300
TAFMGW
TAF
KMGW 282323Z 2900/2924 21005KT P6SM SCT035 BKN100
      TEMPO 2900/2902 4SM -SHSN BKN035
     FM290400 16004KT P6SM BKN100
     FM291800 18008KT P6SM BKN035=



000
FTUS41 KPBZ 282300
TAFZZV
TAF
KZZV 282323Z 2900/2924 18004KT P6SM BKN100
     FM291600 19008KT P6SM BKN035=



000
FTUS41 KPBZ 282300
TAFDUJ
TAF
KDUJ 282323Z 2900/2924 21006KT P6SM SCT025 BKN035
      TEMPO 2902/2904 -SHSN BKN025
     FM290400 17005KT 6SM -SHSN BKN020
     FM291200 16007KT P6SM OVC035=



000
FTUS41 KPBZ 282300
TAFHLG
TAF
KHLG 282323Z 2900/2924 21006KT P6SM SCT035 BKN100
      TEMPO 2900/2902 4SM -SHSN BKN035
     FM290400 16004KT P6SM BKN100
     FM291800 18008KT P6SM BKN035=



000
FTUS41 KPBZ 282300
TAFBVI
TAF
KBVI 282323Z 2900/2924 21005KT P6SM SCT035 BKN100
      TEMPO 2900/2902 4SM -SHSN BKN035
     FM290400 16004KT P6SM BKN100
     FM291800 18008KT P6SM BKN035
      AMD NOT SKED 2902/2912=



000
FTUS41 KPBZ 282300
TAFPIT
TAF
KPIT 282323Z 2900/3006 21005KT P6SM SCT035 BKN100
      TEMPO 2900/2902 -SHSN
     FM290400 16004KT P6SM BKN100
     FM291800 18008KT P6SM BKN035=



000
FTUS41 KPBZ 282300
TAFAGC
TAF
KAGC 282323Z 2900/2924 21005KT P6SM SCT035 BKN100
      TEMPO 2900/2902 -SHSN
     FM290400 16004KT P6SM BKN100
     FM291800 18008KT P6SM BKN035=



000
FTUS41 KPBZ 282300
TAFLBE
TAF
KLBE 282323Z 2900/2924 23005KT P6SM SCT035 BKN100
      TEMPO 2901/2903 -SHSN
     FM290400 16004KT P6SM BKN100
     FM291800 18008KT P6SM BKN035=



000
FTUS41 KPBZ 282100 AAA
TAFAGC
TAF AMD
KAGC 282153Z 2822/2918 24008KT P6SM BKN035
      TEMPO 2900/2902 4SM -SHSN BKN025
     FM290400 16003KT P6SM BKN100
     FM291700 19010KT P6SM BKN035=



000
FTUS41 KPBZ 282100 AAA
TAFZZV
TAF AMD
KZZV 282148Z 2822/2918 20006KT P6SM SCT025 BKN035
      TEMPO 2822/2824 4SM -SHSN BKN025
     FM290000 16003KT P6SM BKN100
     FM291600 19010KT P6SM BKN035=



000
FTUS41 KPBZ 282100 AAA
TAFHLG
TAF AMD
KHLG 282134Z 2822/2918 24008KT P6SM BKN035
      TEMPO 2823/2902 4SM -SHSN BKN025
     FM290400 16003KT P6SM BKN100=



000
FTUS41 KPBZ 282100 AAA
TAFPIT
TAF AMD
KPIT 282130Z 2822/2924 24008KT P6SM BKN035
      TEMPO 2823/2902 4SM -SHSN BKN025
     FM290400 16003KT P6SM BKN100
     FM291800 19010KT P6SM BKN035=



000
FTUS41 KPBZ 281700
TAFPIT
TAF
KPIT 281736Z 2818/2924 31010KT P6SM SCT025 BKN035
     FM282100 25005KT P6SM BKN080
     FM290300 16003KT P6SM BKN100
     FM291800 19010KT P6SM BKN035=



000
FTUS41 KPBZ 281700
TAFZZV
TAF
KZZV 281736Z 2818/2918 31010KT P6SM SCT025 BKN035
     FM282100 25005KT P6SM BKN080
     FM290000 16003KT P6SM BKN100
     FM291600 19010KT P6SM BKN035=



000
FTUS41 KPBZ 281700
TAFBVI
TAF
KBVI 281736Z 2818/2918 29010KT P6SM SCT025 BKN035
     FM282100 25005KT P6SM BKN080
     FM290300 16003KT P6SM BKN100
      AMD NOT SKED=



000
FTUS41 KPBZ 281700
TAFAGC
TAF
KAGC 281736Z 2818/2918 29010KT P6SM SCT025 BKN035
     FM282100 25005KT P6SM BKN080
     FM290300 16003KT P6SM BKN100=



000
FTUS41 KPBZ 281700
TAFDUJ
TAF
KDUJ 281736Z 2818/2918 28010KT P6SM BKN025
      TEMPO 2818/2820 3SM -SHSN
     FM282200 25005KT P6SM BKN035
     FM290300 19005KT P6SM SCT030 BKN080
     FM290600 17005KT 5SM -SN BKN030
     FM291200 16007KT P6SM OVC050=



000
FTUS41 KPBZ 281700
TAFLBE
TAF
KLBE 281736Z 2818/2918 29010KT P6SM SCT025 BKN035
     FM282300 25005KT P6SM BKN080
     FM290600 16003KT P6SM BKN100=



000
FTUS41 KPBZ 281700
TAFMGW
TAF
KMGW 281736Z 2818/2918 29010KT P6SM SCT025 BKN035
      TEMPO 2818/2820 6SM -SHSN BKN025
     FM282100 25005KT P6SM BKN080
     FM290500 19003KT P6SM BKN100=



000
FTUS41 KPBZ 281700
TAFHLG
TAF
KHLG 281736Z 2818/2918 29010KT P6SM SCT025 BKN035
     FM282100 25005KT P6SM BKN080
     FM290300 16003KT P6SM BKN100=



000
FTUS41 KPBZ 281600 AAA
TAFDUJ
TAF AMD
KDUJ 281644Z 2817/2912 28010KT P6SM -SHSN SCT022 OVC060
      TEMPO 2817/2818 2SM -SHSN BKN025
     FM281800 25007KT P6SM BKN035
     FM290000 22005KT P6SM BKN050=



000
FTUS41 KPBZ 281600 AAC
TAFLBE
TAF AMD
KLBE 281619Z 2816/2912 31008KT P6SM OVC035
     FM290000 17004KT P6SM BKN040 BKN100=



000
FTUS41 KPBZ 281600 AAB
TAFMGW
TAF AMD
KMGW 281605Z 2816/2912 28006KT 6SM -SHSN SCT026 OVC045
      TEMPO 2816/2817 2SM -SHSN BKN025
     FM281700 26005KT P6SM BKN035
     FM290000 18003KT P6SM BKN050=



000
FTUS41 KPBZ 281400 AAB
TAFPIT
TAF AMD
KPIT 281444Z 2815/2918 29010KT P6SM SCT025 BKN050
     FM290000 17004KT P6SM SCT050 BKN100=



000
FTUS41 KPBZ 281400 AAB
TAFLBE
TAF AMD
KLBE 281419Z 2814/2912 31008KT 6SM -SN OVC045
     FM281600 28007KT P6SM VCSH BKN025
     FM281800 25007KT P6SM BKN035
     FM290000 17004KT P6SM BKN040 BKN100=



000
FTUS41 KPBZ 281400 AAA
TAFMGW
TAF AMD
KMGW 281417Z 2814/2912 28006KT 6SM -SHSN SCT026 OVC045
      TEMPO 2814/2815 1SM -SHSN BKN015
     FM281600 26005KT P6SM BKN035
     FM290000 18003KT P6SM BKN050=



000
FTUS41 KPBZ 281300 AAA
TAFLBE
TAF AMD
KLBE 281348Z 2814/2912 31008KT 6SM -SN FEW001 BKN029 OVC045
     FM281600 28007KT P6SM VCSH BKN025
     FM281800 25007KT P6SM BKN035
     FM290000 17004KT P6SM BKN040 BKN100=



000
FTUS41 KPBZ 281300 AAA
TAFZZV
TAF AMD
KZZV 281314Z 2813/2912 29006KT P6SM SCT024 OVC050
      TEMPO 2813/2815 6SM -SHSN BKN025
     FM281600 23006KT P6SM BKN050
     FM290000 17003KT P6SM BKN050=



000
FTUS41 KPBZ 281300 AAA
TAFHLG
TAF AMD
KHLG 281306Z 2813/2912 27008KT P6SM SCT027 OVC050
     FM281500 25008KT P6SM BKN035
     FM290000 18005KT P6SM BKN050=



000
FTUS41 KPBZ 281300 AAA
TAFAGC
TAF AMD
KAGC 281304Z 2813/2912 31010KT 6SM -SHSN SCT025 BKN040
     FM281800 25007KT P6SM BKN035
     FM290000 17004KT P6SM SCT050 BKN100=



000
FTUS41 KPBZ 281200 AAA
TAFPIT
TAF AMD
KPIT 281249Z 2813/2918 29009KT P6SM SCT025 BKN050
      TEMPO 2813/2815 6SM -SHSN
     FM281600 25007KT P6SM BKN035
     FM290000 17004KT P6SM SCT050 BKN100=



000
FTUS41 KPBZ 281100 CCA
TAFPIT
TAF COR
KPIT 281146Z 2812/2918 29009KT P6SM FEW010 SCT040 BKN050
      TEMPO 2812/2815 6SM -SHSN
     FM281500 28007KT P6SM VCSH BKN025
     FM281800 25007KT P6SM BKN035
     FM290000 17004KT P6SM SCT050 BKN100=



000
FTUS41 KPBZ 281100
TAFBVI
TAF
KBVI 281120Z 2812/2912 28008KT P6SM -SHSN OVC025
      TEMPO 2812/2815 3SM -SHSN
     FM281500 28007KT P6SM VCSH BKN025
     FM281800 25007KT P6SM BKN035
     FM290000 17004KT P6SM SCT050 BKN100=



000
FTUS41 KPBZ 281100
TAFLBE
TAF
KLBE 281120Z 2812/2912 31008KT 6SM -SN FEW001 BKN029 OVC045
      TEMPO 2812/2814 2SM -SHSN BKN012
     FM281600 28007KT P6SM VCSH BKN025
     FM281800 25007KT P6SM BKN035
     FM290000 17004KT P6SM BKN040 BKN100=



000
FTUS41 KPBZ 281100
TAFPIT
TAF
KPIT 281120Z 2812/2918 30008KT P6SM -SHSN FEW007 BKN022 OVC060
      TEMPO 2812/2815 3SM -SHSN
     FM281500 28007KT P6SM VCSH BKN025
     FM281800 25007KT P6SM BKN035
     FM290000 17004KT P6SM SCT050 BKN100=



000
FTUS41 KPBZ 281100
TAFZZV
TAF
KZZV 281120Z 2812/2912 29006KT P6SM SCT024 OVC050
     FM281600 23006KT P6SM BKN050
     FM290000 17003KT P6SM BKN050=



000
FTUS41 KPBZ 281100
TAFDUJ
TAF
KDUJ 281120Z 2812/2912 28010KT P6SM FEW015 SCT022 OVC060
      TEMPO 2812/2815 5SM -SHSN BKN025
     FM281800 25007KT P6SM BKN035
     FM290000 22005KT P6SM BKN050=



000
FTUS41 KPBZ 281100
TAFHLG
TAF
KHLG 281120Z 2812/2912 27008KT P6SM SCT027 BKN040 OVC050
      TEMPO 2812/2815 3SM -SHSN BKN027
     FM281500 25008KT P6SM BKN035
     FM290000 18005KT P6SM BKN050=



000
FTUS41 KPBZ 281100
TAFAGC
TAF
KAGC 281120Z 2812/2912 31008KT 6SM -SHSN SCT010 OVC021
      TEMPO 2812/2815 3SM -SHSN BKN015
     FM281500 28007KT P6SM VCSH BKN025
     FM281800 25007KT P6SM BKN035
     FM290000 17004KT P6SM SCT050 BKN100=



000
FTUS41 KPBZ 281100
TAFMGW
TAF
KMGW 281120Z 2812/2912 28006KT 6SM -SHSN FEW019 SCT026 OVC045
      TEMPO 2812/2815 3SM -SHSN
     FM281500 26005KT P6SM BKN035
     FM290000 18003KT P6SM BKN050=



000
FTUS41 KPBZ 281000 AAC
TAFPIT
TAF AMD
KPIT 281021Z 2810/2912 30008KT P6SM -SN FEW007 BKN015 OVC060
     FM281500 26008KT P6SM BKN035
     FM290000 18003KT P6SM BKN050=



000
FTUS41 KPBZ 281000 AAA
TAFMGW
TAF AMD
KMGW 281021Z 2810/2906 26005KT P6SM -SHSN OVC015
      TEMPO 2810/2812 4SM -SHSN
     FM281200 28005KT P6SM OVC025
     FM281500 26005KT P6SM BKN035
     FM290000 18003KT P6SM BKN050=



000
FTUS41 KPBZ 281000 AAA
TAFMGW
TAF AMD
KMGW 281021Z 2810/2906 26005KT P6SM -SHSN OVC015
      TEMPO 2810/2812 4SM -SHSN
     FM281200 28005KT P6SM OVC025
     FM281500 26005KT P6SM BKN035
     FM290000 18003KT P6SM BKN050=



000
FTUS41 KPBZ 281000 AAC
TAFPIT
TAF AMD
KPIT 281021Z 2810/2912 30008KT P6SM -SN FEW007 BKN015 OVC060
     FM281500 26008KT P6SM BKN035
     FM290000 18003KT P6SM BKN050=



000
FTUS41 KPBZ 281000 AAA
TAFLBE
TAF AMD
KLBE 281020Z 2810/2906 30009KT 4SM -SHSN OVC016
      TEMPO 2810/2812 1SM -SHSN
     FM281200 29007KT P6SM OVC025
     FM281500 26008KT P6SM BKN035
     FM290000 20003KT P6SM BKN050=



000
FTUS41 KPBZ 281000 AAA
TAFLBE
TAF AMD
KLBE 281020Z 2810/2906 30009KT 4SM -SHSN OVC016
      TEMPO 2810/2812 1SM -SHSN
     FM281200 29007KT P6SM OVC025
     FM281500 26008KT P6SM BKN035
     FM290000 20003KT P6SM BKN050=



000
FTUS41 KPBZ 281000 AAA
TAFDUJ
TAF AMD
KDUJ 281001Z 2810/2906 29007KT P6SM SCT016 BKN027 OVC030
     FM281800 25007KT P6SM BKN035
     FM290000 22005KT P6SM BKN050=



000
FTUS41 KPBZ 281000 AAA
TAFZZV
TAF AMD
KZZV 281000Z 2810/2906 29006KT P6SM BKN024 OVC050
     FM281600 23006KT P6SM BKN050
     FM290000 17003KT P6SM BKN050=



000
FTUS41 KPBZ 280900 AAA
TAFHLG
TAF AMD
KHLG 280917Z 2809/2906 29007KT P6SM OVC035
      TEMPO 2809/2810 1 1/2SM -SN BKN019
     FM281500 25008KT P6SM BKN035
     FM290000 18005KT P6SM BKN050=



000
FTUS41 KPBZ 280800 AAB
TAFPIT
TAF AMD
KPIT 280857Z 2809/2912 31005KT 5SM -SN BR BKN012 OVC018
      TEMPO 2809/2810 1SM -SN OVC010
     FM281000 21005KT P6SM BKN025
     FM281500 26008KT P6SM BKN035
     FM290000 18003KT P6SM BKN050=



000
FTUS41 KPBZ 280800 AAA
TAFPIT
TAF AMD
KPIT 280806Z 2808/2912 29010KT P6SM -SN BKN018 OVC026
      TEMPO 2808/2810 1SM -SN OVC015
     FM281500 26008KT P6SM BKN035
     FM290000 18003KT P6SM BKN050=



000
FTUS41 KPBZ 280800 AAB
TAFAGC
TAF AMD
KAGC 280806Z 2808/2906 32007G17KT P6SM BKN022 OVC028
      TEMPO 2808/2810 1SM -SN OVC018
     FM281500 26008KT P6SM BKN035
     FM290000 18003KT P6SM BKN050=



000
FTUS41 KPBZ 280700 AAA
TAFAGC
TAF AMD
KAGC 280720Z 2807/2906 28008G15KT P6SM -SHSN OVC015
      TEMPO 2807/2808 1 1/2SM -SHSN OVC024
     FM280800 29007KT P6SM OVC025
     FM281500 26008KT P6SM BKN035
     FM290000 18003KT P6SM BKN050=



000
FTUS41 KPBZ 280500
TAFPIT
TAF
KPIT 280528Z 2806/2912 28008KT P6SM -SHSN OVC015
      TEMPO 2806/2808 1SM -SHSN
     FM280800 29007KT P6SM OVC025
     FM281500 26008KT P6SM BKN035
     FM290000 18003KT P6SM BKN050=



000
FTUS41 KPBZ 280500
TAFAGC
TAF
KAGC 280528Z 2806/2906 28008G15KT P6SM -SHSN OVC015
     FM280800 29007KT P6SM OVC025
     FM281500 26008KT P6SM BKN035
     FM290000 18003KT P6SM BKN050=



000
FTUS41 KPBZ 280500
TAFHLG
TAF
KHLG 280528Z 2806/2906 26008KT 5SM -SHSN OVC015
     FM280800 29007KT P6SM OVC035
     FM281500 25008KT P6SM BKN035
     FM290000 18005KT P6SM BKN050=



000
FTUS41 KPBZ 280500
TAFMGW
TAF
KMGW 280528Z 2806/2906 26005KT P6SM -SHSN OVC015
     FM281200 28005KT P6SM OVC025
     FM281500 26005KT P6SM BKN035
     FM290000 18003KT P6SM BKN050=



000
FTUS41 KPBZ 280500
TAFZZV
TAF
KZZV 280528Z 2806/2906 28008KT P6SM OVC035
     FM281600 23006KT P6SM BKN050
     FM290000 17003KT P6SM BKN050=



000
FTUS41 KPBZ 280500
TAFLBE
TAF
KLBE 280528Z 2806/2906 26008KT P6SM -SHSN OVC015
      TEMPO 2808/2811 3SM -SHSN
     FM281200 29007KT P6SM OVC025
     FM281500 26008KT P6SM BKN035
     FM290000 20003KT P6SM BKN050=



000
FTUS41 KPBZ 280500
TAFBVI
TAF
KBVI 280528Z 2806/2906 28008KT P6SM -SHSN OVC015
      TEMPO 2806/2808 3/4SM -SHSN OVC008
     FM280800 29007KT P6SM OVC025
     FM281500 26008KT P6SM BKN035
     FM290000 18003KT P6SM BKN050
      AMD NOT SKED=



000
FTUS41 KPBZ 280500
TAFDUJ
TAF
KDUJ 280528Z 2806/2906 28008KT 5SM -SHSN OVC015
     FM281200 28008KT P6SM OVC025
     FM281800 25007KT P6SM BKN035
     FM290000 22005KT P6SM BKN050=



000
FTUS41 KPBZ 280300 AAC
TAFMGW
TAF AMD
KMGW 280359Z 2804/2824 26005KT P6SM -SHSN OVC015
     FM281000 28005KT P6SM OVC035=



000
FTUS41 KPBZ 280300 AAC
TAFMGW
TAF AMD
KMGW 280359Z 2804/2824 26005KT P6SM -SHSN OVC015
     FM281000 28005KT P6SM OVC035=



000
FTUS41 KPBZ 280300 AAB
TAFPIT
TAF AMD
KPIT 280357Z 2804/2906 28008KT P6SM -SHSN OVC015
     FM280800 30007KT P6SM OVC035
     FM281600 25008KT P6SM BKN050
     FM290000 18003KT P6SM BKN050=



000
FTUS41 KPBZ 280300 AAA
TAFBVI
TAF AMD
KBVI 280357Z 2804/2824 28008KT P6SM -SHSN OVC025
     FM280800 30007KT P6SM OVC035
     FM281600 25008KT P6SM BKN050
      AMD NOT SKED 2802/2812=



000
FTUS41 KPBZ 280300 AAC
TAFLBE
TAF AMD
KLBE 280357Z 2804/2824 27008KT 5SM -SHSN OVC015
     FM280900 31007KT P6SM OVC035
     FM281600 25008KT P6SM BKN050=



000
FTUS41 KPBZ 280300 AAB
TAFAGC
TAF AMD
KAGC 280357Z 2804/2824 28008G15KT P6SM -SHSN OVC025
     FM280800 30007KT P6SM OVC035
     FM281600 25008KT P6SM BKN050=



000
FTUS41 KPBZ 280300 AAA
TAFBVI
TAF AMD
KBVI 280357Z 2804/2824 28008KT P6SM -SHSN OVC025
     FM280800 30007KT P6SM OVC035
     FM281600 25008KT P6SM BKN050
      AMD NOT SKED 2802/2812=



000
FTUS41 KPBZ 280300 AAC
TAFLBE
TAF AMD
KLBE 280357Z 2804/2824 27008KT 5SM -SHSN OVC015
     FM280900 31007KT P6SM OVC035
     FM281600 25008KT P6SM BKN050=



000
FTUS41 KPBZ 280300 AAB
TAFAGC
TAF AMD
KAGC 280357Z 2804/2824 28008G15KT P6SM -SHSN OVC025
     FM280800 30007KT P6SM OVC035
     FM281600 25008KT P6SM BKN050=



000
FTUS41 KPBZ 280300 AAB
TAFPIT
TAF AMD
KPIT 280357Z 2804/2906 28008KT P6SM -SHSN OVC015
     FM280800 30007KT P6SM OVC035
     FM281600 25008KT P6SM BKN050
     FM290000 18003KT P6SM BKN050=



000
FTUS41 KPBZ 280300 AAA
TAFDUJ
TAF AMD
KDUJ 280306Z 2803/2824 27009KT 3SM -SHSN BR OVC015
      TEMPO 2803/2805 2SM -SHSN OVC008
     FM280600 28010KT P6SM -SHSN OVC025
     FM281500 26007KT P6SM OVC035=



000
FTUS41 KPBZ 280300 AAB
TAFMGW
TAF AMD
KMGW 280306Z 2803/2824 30005KT P6SM -SHSN OVC015
      TEMPO 2804/2806 1SM -SHSN OVC008
     FM281000 28005KT P6SM OVC035=



000
FTUS41 KPBZ 280300 AAA
TAFHLG
TAF AMD
KHLG 280306Z 2803/2824 25008KT P6SM OVC100
     FM280400 27008KT P6SM -SHSN OVC030
     FM280800 30007KT P6SM OVC035
     FM281600 25008KT P6SM BKN050=



000
FTUS41 KPBZ 280300 AAB
TAFLBE
TAF AMD
KLBE 280306Z 2803/2824 29008KT P6SM -SHSN OVC015
      TEMPO 2805/2808 2SM -SHSN
     FM280900 31007KT P6SM OVC035
     FM281600 25008KT P6SM BKN050=



000
FTUS41 KPBZ 280300 AAA
TAFAGC
TAF AMD
KAGC 280306Z 2803/2824 28008KT P6SM -SHSN OVC025
      TEMPO 2804/2806 2SM -SHSN OVC015
     FM280800 30007KT P6SM OVC035
     FM281600 25008KT P6SM BKN050=



000
FTUS41 KPBZ 280300 AAA
TAFPIT
TAF AMD
KPIT 280306Z 2803/2906 28008KT P6SM -SHSN OVC015
      TEMPO 2804/2806 2SM -SHSN
     FM280800 30007KT P6SM OVC035
     FM281600 25008KT P6SM BKN050
     FM290000 18003KT P6SM BKN050=



000
FTUS41 KPBZ 280200 AAA
TAFLBE
TAF AMD
KLBE 280203Z 2802/2824 29008KT P6SM -SHSN OVC020
      TEMPO 2804/2807 2SM -SHSN OVC015
     FM280900 31007KT P6SM OVC035
     FM281600 25008KT P6SM BKN050=



000
FTUS41 KPBZ 280200 AAA
TAFZZV
TAF AMD
KZZV 280203Z 2802/2824 28008KT P6SM OVC025
      TEMPO 2802/2803 3SM -SHSN
     FM281500 23006KT P6SM OVC050=



000
FTUS41 KPBZ 280200 AAA
TAFMGW
TAF AMD
KMGW 280203Z 2802/2824 30005KT P6SM -SHSN OVC035
     FM281000 28005KT P6SM OVC035=



000
FTUS41 KPBZ 272300
TAFBVI
TAF
KBVI 272338Z 2800/2824 28008KT P6SM -SHSN OVC035
      TEMPO 2802/2805 1SM -SHSN OVC015
     FM280800 30007KT P6SM OVC035
     FM281600 25008KT P6SM BKN050
      AMD NOT SKED=



000
FTUS41 KPBZ 272300
TAFDUJ
TAF
KDUJ 272338Z 2800/2824 30009KT 3SM -SHSN BR OVC015
     FM280600 28010KT P6SM -SHSN OVC025
     FM281500 26007KT P6SM OVC035=



000
FTUS41 KPBZ 272300
TAFAGC
TAF
KAGC 272338Z 2800/2824 28008KT P6SM -SHSN OVC035
      TEMPO 2803/2806 2SM -SHSN OVC015
     FM280800 30007KT P6SM OVC035
     FM281600 25008KT P6SM BKN050=



000
FTUS41 KPBZ 272300
TAFLBE
TAF
KLBE 272338Z 2800/2824 29008KT P6SM -SHSN OVC015
      TEMPO 2804/2807 2SM -SHSN OVC015
     FM280900 31007KT P6SM OVC035
     FM281600 25008KT P6SM BKN050=



000
FTUS41 KPBZ 272300
TAFHLG
TAF
KHLG 272338Z 2800/2824 28008KT P6SM -SHSN OVC030
     FM280800 30007KT P6SM OVC035
     FM281600 25008KT P6SM BKN050=



000
FTUS41 KPBZ 272300
TAFZZV
TAF
KZZV 272338Z 2800/2824 28008KT P6SM OVC035
     FM281500 23006KT P6SM OVC050=



000
FTUS41 KPBZ 272300
TAFMGW
TAF
KMGW 272338Z 2800/2824 30005KT P6SM -SHSN OVC030
     FM281000 28005KT P6SM OVC035=



000
FTUS41 KPBZ 272300
TAFPIT
TAF
KPIT 272338Z 2800/2906 28008KT P6SM -SHSN OVC035
      TEMPO 2803/2806 2SM -SHSN OVC015
     FM280800 30007KT P6SM OVC035
     FM281600 25008KT P6SM BKN050
     FM290000 18003KT P6SM BKN050=



000
FTUS41 KPBZ 272200 AAB
TAFLBE
TAF AMD
KLBE 272205Z 2722/2818 28009KT 3SM -SHSN BR OVC010
      TEMPO 2722/2723 1SM -SHSN BKN015
     FM272330 30008KT P6SM -SHSN OVC030
     FM280800 32007KT P6SM OVC035
     FM281600 25006KT P6SM BKN050=



000
FTUS41 KPBZ 272200 AAD
TAFPIT
TAF AMD
KPIT 272205Z 2722/2824 29009KT 3SM -SHSN BR OVC015
     FM272300 30008KT P6SM -SHSN OVC030
     FM280800 32007KT P6SM OVC035
     FM281600 25006KT P6SM BKN050=



000
FTUS41 KPBZ 272200 AAB
TAFMGW
TAF AMD
KMGW 272205Z 2722/2818 28008KT 5SM -SHSN OVC020
      TEMPO 2722/2723 1SM -SHSN OVC010
     FM280100 30008KT P6SM -SHSN OVC030
     FM281000 28007KT P6SM OVC035=



000
FTUS41 KPBZ 272100 AAC
TAFAGC
TAF AMD
KAGC 272122Z 2721/2818 29009G18KT 3SM -SHSN BR OVC015
      TEMPO 2721/2722 1 1/2SM -SHSN
     FM272300 30008KT P6SM -SHSN OVC030
     FM280800 32007KT P6SM OVC035
     FM281600 25006KT P6SM BKN050=



000
FTUS41 KPBZ 272000 AAB
TAFBVI
TAF AMD
KBVI 272037Z 2721/2818 29009KT 3SM -SHSN BR OVC015
     FM272300 30008KT P6SM -SHSN OVC030
     FM280800 32007KT P6SM OVC035
     FM281600 25006KT P6SM BKN050
      AMD NOT SKED=



000
FTUS41 KPBZ 272000 AAC
TAFPIT
TAF AMD
KPIT 272037Z 2721/2824 29009KT 3SM -SHSN BR OVC015
     FM272300 30008KT P6SM -SHSN OVC030
     FM280800 32007KT P6SM OVC035
     FM281600 25006KT P6SM BKN050=



000
FTUS41 KPBZ 272000 AAB
TAFHLG
TAF AMD
KHLG 272037Z 2721/2818 28009KT 2SM -SHSN BR OVC015
     FM272300 30008KT P6SM -SHSN OVC030
     FM280800 32007KT P6SM OVC035
     FM281600 25006KT P6SM BKN050=



000
FTUS41 KPBZ 272000 AAB
TAFAGC
TAF AMD
KAGC 272037Z 2721/2818 29009KT 3SM -SHSN BR OVC015
     FM280000 30008KT P6SM -SHSN OVC030
     FM280800 32007KT P6SM OVC035
     FM281600 25006KT P6SM BKN050=



000
FTUS41 KPBZ 271900 AAA
TAFHLG
TAF AMD
KHLG 271942Z 2720/2818 28009KT 3SM -SHSN BR OVC025
     FM272200 30008KT P6SM -SHSN OVC030
     FM280800 32007KT P6SM OVC035
     FM281600 25006KT P6SM BKN050=



000
FTUS41 KPBZ 271900 AAB
TAFPIT
TAF AMD
KPIT 271942Z 2720/2824 29009KT 3SM -SHSN BR OVC025
     FM272200 30008KT P6SM -SHSN OVC030
     FM280800 32007KT P6SM OVC035
     FM281600 25006KT P6SM BKN050=



000
FTUS41 KPBZ 271900 AAA
TAFDUJ
TAF AMD
KDUJ 271942Z 2720/2818 30009KT 3SM -SHSN BR OVC035
      TEMPO 2720/2724 2SM -SHSN BKN015
     FM280500 28010KT P6SM -SHSN OVC025
     FM281500 26007KT P6SM OVC035=



000
FTUS41 KPBZ 271900 AAA
TAFBVI
TAF AMD
KBVI 271942Z 2720/2818 29009KT 3SM -SHSN BR OVC015
     FM272200 30008KT P6SM -SHSN OVC030
     FM280800 32007KT P6SM OVC035
     FM281600 25006KT P6SM BKN050=



000
FTUS41 KPBZ 271900 AAA
TAFAGC
TAF AMD
KAGC 271942Z 2720/2818 29009KT 3SM -SHSN BR OVC025
     FM272300 30008KT P6SM -SHSN OVC030
     FM280800 32007KT P6SM OVC035
     FM281600 25006KT P6SM BKN050=



000
FTUS41 KPBZ 271900 AAB
TAFZZV
TAF AMD
KZZV 271942Z 2720/2818 30010KT P6SM VCSH OVC020
     FM272300 28009KT P6SM OVC035
     FM281500 23004KT P6SM OVC050=



000
FTUS41 KPBZ 271900 AAA
TAFMGW
TAF AMD
KMGW 271942Z 2720/2818 31005KT P6SM BKN035
     FM272200 30008KT 5SM -SHSN OVC020
     FM280300 30008KT P6SM -SHSN OVC030
     FM281000 28007KT P6SM OVC035=



000
FTUS41 KPBZ 271900 AAA
TAFLBE
TAF AMD
KLBE 271942Z 2720/2818 28009KT 3SM -SHSN BR OVC025
      TEMPO 2720/2721 2SM -SHSN BKN015
     FM272300 30008KT P6SM -SHSN OVC030
     FM280800 32007KT P6SM OVC035
     FM281600 25006KT P6SM BKN050=



000
FTUS41 KPBZ 271900 AAA
TAFZZV
TAF AMD
KZZV 271930Z 2720/2818 30010KT P6SM VCSH OVC020
     FM272300 28009KT P6SM OVC035
     FM281500 23004KT P6SM OVC050=



000
FTUS41 KPBZ 271900 AAA
TAFPIT
TAF AMD
KPIT 271916Z 2719/2824 29009KT 3SM -SHSN BR OVC025
      TEMPO 2719/2720 2SM -SHSN BKN015
     FM272200 30008KT P6SM VCSH OVC030
     FM280800 32007KT P6SM OVC035
     FM281600 25006KT P6SM BKN050=



000
FTUS41 KPBZ 271700
TAFDUJ
TAF
KDUJ 271734Z 2718/2818 30009KT 3SM -SHSN BR OVC035
      TEMPO 2720/2724 2SM -SHSN BKN015
     FM280500 28010KT P6SM VCSH OVC025
     FM281500 26007KT P6SM OVC035=



000
FTUS41 KPBZ 271700
TAFAGC
TAF
KAGC 271734Z 2718/2818 29009KT 3SM -SHSN BR OVC025
      TEMPO 2718/2719 2SM -SHSN BKN015
     FM272300 30008KT P6SM VCSH OVC030
     FM280800 32007KT P6SM OVC035
     FM281600 25006KT P6SM BKN050=



000
FTUS41 KPBZ 271700
TAFMGW
TAF
KMGW 271734Z 2718/2818 31005KT P6SM BKN035
     FM272200 30008KT 5SM -SHSN OVC020
     FM280300 30008KT P6SM VCSH OVC030
     FM281000 28007KT P6SM OVC035=



000
FTUS41 KPBZ 271700
TAFHLG
TAF
KHLG 271734Z 2718/2818 28009KT 3SM -SHSN BR OVC025
      TEMPO 2718/2719 1SM -SHSN BKN015
     FM272200 30008KT P6SM VCSH OVC030
     FM280800 32007KT P6SM OVC035
     FM281600 25006KT P6SM BKN050=



000
FTUS41 KPBZ 271700
TAFLBE
TAF
KLBE 271734Z 2718/2818 28009KT 3SM -SHSN BR OVC025
      TEMPO 2718/2721 2SM -SHSN BKN015
     FM272300 30008KT P6SM VCSH OVC030
     FM280800 32007KT P6SM OVC035
     FM281600 25006KT P6SM BKN050=



000
FTUS41 KPBZ 271700
TAFBVI
TAF
KBVI 271734Z 2718/2818 29009KT 3SM -SHSN BR OVC015
      TEMPO 2718/2719 2SM -SHSN
     FM272200 30008KT P6SM VCSH OVC030
     FM280800 32007KT P6SM OVC035
     FM281600 25006KT P6SM BKN050
      AMD NOT SKED=



000
FTUS41 KPBZ 271700
TAFPIT
TAF
KPIT 271734Z 2718/2824 29009KT 3SM -SHSN BR OVC025
      TEMPO 2718/2719 2SM -SHSN BKN015
     FM272200 30008KT P6SM VCSH OVC030
     FM280800 32007KT P6SM OVC035
     FM281600 25006KT P6SM BKN050=



000
FTUS41 KPBZ 271700
TAFZZV
TAF
KZZV 271734Z 2718/2818 30010KT 6SM -SHSN OVC015
     FM272300 28009KT P6SM OVC035
     FM281500 23004KT P6SM OVC050=



000
FTUS41 KPBZ 271600 AAB
TAFZZV
TAF AMD
KZZV 271614Z 2716/2812 29010KT 5SM -SHSN OVC015
      TEMPO 2716/2718 2SM -SHSN BKN015
     FM272100 29009KT P6SM OVC035=



000
FTUS41 KPBZ 271500 AAC
TAFMGW
TAF AMD
KMGW 271555Z 2716/2812 00000KT 4SM BR BKN015
     FM272000 30010KT 5SM -SHSN OVC035=



000
FTUS41 KPBZ 271500 AAB
TAFDUJ
TAF AMD
KDUJ 271543Z 2716/2812 30006KT 4SM -SHSN SCT005 BKN030
      TEMPO 2717/2718 2SM -SHSN BR BKN015
     FM272300 29008KT 6SM -SHSN BKN025=



000
FTUS41 KPBZ 271500 AAB
TAFAGC
TAF AMD
KAGC 271539Z 2716/2812 30004KT P6SM OVC040
     FM271700 29005KT 3SM -SHSN BR OVC025
      TEMPO 2717/2719 2SM -SHSN BKN015
     FM272100 30008KT P6SM VCSH OVC035=



000
FTUS41 KPBZ 271500 AAB
TAFMGW
TAF AMD
KMGW 271516Z 2715/2812 00000KT 4SM BR BKN015
      TEMPO 2715/2717 1 1/2SM -SN BKN008
     FM272000 30010KT 5SM -SHSN OVC035=



000
FTUS41 KPBZ 271400 AAB
TAFPIT
TAF AMD
KPIT 271457Z 2715/2818 29005KT 3SM -SHSN BR OVC025
      TEMPO 2715/2718 2SM -SHSN BKN015
     FM272100 30008KT P6SM VCSH OVC035=



000
FTUS41 KPBZ 271400 AAA
TAFLBE
TAF AMD
KLBE 271436Z 2715/2812 27005KT 2SM -SHSN BR OVC008
     FM271530 29008KT 6SM -SHSN BR SCT015 OVC035
     FM272000 29008KT 3SM -SHSN BKN015=



000
FTUS41 KPBZ 271300 AAA
TAFZZV
TAF AMD
KZZV 271342Z 2714/2812 33005KT P6SM OVC015
     FM271500 29010KT 5SM -SHSN OVC015
     FM271800 29009KT P6SM OVC035=



000
FTUS41 KPBZ 271300 AAA
TAFMGW
TAF AMD
KMGW 271338Z 2714/2812 00000KT 4SM BR BKN035
     FM272000 30010KT 5SM -SHSN OVC025=



000
FTUS41 KPBZ 271300 AAA
TAFHLG
TAF AMD
KHLG 271335Z 2714/2812 30004KT 6SM BR OVC040
     FM271500 29005KT 3SM -SHSN BR OVC025
      TEMPO 2716/2718 2SM -SHSN BKN015
     FM272100 30008KT P6SM VCSH OVC035=



000
FTUS41 KPBZ 271300 AAA
TAFPIT
TAF AMD
KPIT 271332Z 2714/2818 30004KT 5SM BR OVC040
     FM271500 29005KT 3SM -SHSN BR OVC025
      TEMPO 2715/2718 2SM -SHSN BKN015
     FM272100 30008KT P6SM VCSH OVC035=



000
FTUS41 KPBZ 271300 AAA
TAFAGC
TAF AMD
KAGC 271330Z 2714/2812 30004KT 3SM BR OVC040
     FM271500 29005KT 3SM -SHSN BR OVC025
      TEMPO 2715/2718 2SM -SHSN BKN015
     FM272100 30008KT P6SM VCSH OVC035=



000
FTUS41 KPBZ 271300 AAA
TAFDUJ
TAF AMD
KDUJ 271324Z 2713/2812 30006KT 5SM -SHSN SCT005 BKN035
      TEMPO 2713/2716 2SM -SHSN BR BKN005
     FM271600 29008KT 6SM -SHSN BKN025=



000
FTUS41 KPBZ 271100 CCA
TAFPIT
TAF COR
KPIT 271139Z 2712/2818 25003KT 4SM BR SCT025 OVC045
     FM271500 28005KT 4SM -SHSN BR OVC020
     FM280000 30010KT P6SM VCSH OVC020=



000
FTUS41 KPBZ 271100 CCB
TAFDUJ
TAF COR
KDUJ 271139Z 2712/2812 00000KT 2SM -SG BR BKN010
     FM271400 30009KT 3SM -SHSN OVC015=



000
FTUS41 KPBZ 271100 CCA
TAFAGC
TAF COR
KAGC 271126Z 2712/2812 26004KT 2SM BR BKN005 BKN013 OVC040
      TEMPO 2712/2715 4SM BR OVC025
     FM271500 28005KT 4SM -SHSN BR OVC020
     FM280000 30010KT P6SM VCSH OVC020=



000
FTUS41 KPBZ 271100 CCA
TAFDUJ
TAF COR
KDUJ 271125Z 2712/2812 00000KT 2SM -SG BR BKN009
     FM271400 30009KT 3SM -SHSN OVC015=



000
FTUS41 KPBZ 271100 CCA
TAFMGW
TAF COR
KMGW 271125Z 2712/2812 00000KT 6SM BR FEW005 BKN021 BKN050
     FM271800 30010KT 5SM -SHSN OVC020=



000
FTUS41 KPBZ 271100
TAFHLG
TAF
KHLG 271120Z 2712/2812 29005KT 3SM BR SCT005 OVC035
     FM271500 29008KT 6SM -SHSN BR SCT012 OVC025
     FM272300 29009KT P6SM OVC025=



000
FTUS41 KPBZ 271100
TAFMGW
TAF
KMGW 271120Z 2712/2812 00000KT 6SM BR FEW005 SCT021 BKN050
     FM271800 30010KT 5SM -SHSN OVC020=



000
FTUS41 KPBZ 271100
TAFLBE
TAF
KLBE 271120Z 2712/2812 00000KT 2SM BR OVC011
      TEMPO 2712/2715 4SM BR OVC022
     FM271600 29009KT 4SM -SHSN BR OVC020=



000
FTUS41 KPBZ 271100
TAFBVI
TAF
KBVI 271120Z 2712/2812 00000KT 4SM BR OVC013
      TEMPO 2712/2714 4SM BR OVC022
     FM271400 28005KT 4SM -SHSN BR OVC020
     FM280000 30010KT P6SM VCSH OVC020=



000
FTUS41 KPBZ 271100
TAFDUJ
TAF
KDUJ 271120Z 2712/2812 00000KT 2SM -SG BR BKN009
     FM271400 30009KT 3SM -SHSN OVC015=



000
FTUS41 KPBZ 271100
TAFPIT
TAF
KPIT 271120Z 2712/2818 25003KT 2SM BR SCT004 SCT019 OVC045
      TEMPO 2712/2715 4SM BR OVC025
     FM271500 28005KT 4SM -SHSN BR OVC020
     FM280000 30010KT P6SM VCSH OVC020=



000
FTUS41 KPBZ 271100
TAFZZV
TAF
KZZV 271120Z 2712/2812 33005KT P6SM OVC035
     FM271500 29010KT 6SM -SHSN OVC025
     FM272000 29009KT P6SM OVC030=



000
FTUS41 KPBZ 271100
TAFAGC
TAF
KAGC 271120Z 2712/2812 26004KT 3SM BR BKN005 BKN013 OVC040
      TEMPO 2712/2715 4SM BR OVC025
     FM271500 28005KT 4SM -SHSN BR OVC020
     FM280000 30010KT P6SM VCSH OVC020=



000
FTUS41 KPBZ 271000 AAC
TAFAGC
TAF AMD
KAGC 271009Z 2710/2806 00000KT 2SM BR OVC050
      TEMPO 2710/2714 BKN005
     FM271500 28005KT 4SM BR OVC025
     FM271800 29008KT 4SM -SHSN OVC020=



000
FTUS41 KPBZ 271000 AAC
TAFLBE
TAF AMD
KLBE 271009Z 2710/2806 00000KT 5SM BR SCT010 BKN016 OVC045
      TEMPO 2710/2714 BKN006
     FM271500 28010KT 4SM BR OVC012
     FM271900 29009KT 3SM -SHSN BR OVC020=



000
FTUS41 KPBZ 271000 AAC
TAFAGC
TAF AMD
KAGC 271009Z 2710/2806 00000KT 2SM BR OVC050
      TEMPO 2710/2714 BKN005
     FM271500 28005KT 4SM BR OVC025
     FM271800 29008KT 4SM -SHSN OVC020=



000
FTUS41 KPBZ 271000 AAC
TAFLBE
TAF AMD
KLBE 271009Z 2710/2806 00000KT 5SM BR SCT010 BKN016 OVC045
      TEMPO 2710/2714 BKN006
     FM271500 28010KT 4SM BR OVC012
     FM271900 29009KT 3SM -SHSN BR OVC020=



000
FTUS41 KPBZ 270900 AAB
TAFDUJ
TAF AMD
KDUJ 270900Z 2709/2806 04003KT P6SM OVC017
     FM271400 30009KT 3SM -SHSN OVC015=



000
FTUS41 KPBZ 270900 AAB
TAFMGW
TAF AMD
KMGW 270900Z 2709/2806 00000KT P6SM OVC006
      TEMPO 2709/2711 4SM BR OVC012
     FM271500 33003KT 3SM -SG BR OVC008
     FM272000 30010KT 6SM -SHSN OVC015=



000
FTUS41 KPBZ 270800 AAB
TAFPIT
TAF AMD
KPIT 270859Z 2709/2812 27003KT 2SM BR SCT003 OVC050
     FM271500 28005KT 4SM BR OVC025
     FM271800 29008KT 4SM -SHSN OVC020=



000
FTUS41 KPBZ 270800 AAB
TAFAGC
TAF AMD
KAGC 270859Z 2709/2806 00000KT 2SM BR OVC050
     FM271500 28005KT 4SM BR OVC025
     FM271800 29008KT 4SM -SHSN OVC020=



000
FTUS41 KPBZ 270800 AAB
TAFLBE
TAF AMD
KLBE 270859Z 2709/2806 00000KT 5SM BR SCT010 BKN016 OVC045
     FM271500 28010KT 4SM BR OVC012
     FM271900 29009KT 3SM -SHSN BR OVC020=



000
FTUS41 KPBZ 270800 AAB
TAFHLG
TAF AMD
KHLG 270852Z 2709/2806 00000KT 2SM BR SCT003 BKN010 OVC045
      TEMPO 2709/2711 BKN003
     FM271500 27008KT 5SM BR OVC009
     FM271800 30010KT 5SM -SHSN OVC025=



000
FTUS41 KPBZ 270800 AAA
TAFLBE
TAF AMD
KLBE 270818Z 2708/2806 24003KT 4SM BR OVC010
     FM271500 28010KT 4SM BR OVC012
     FM271900 29009KT 3SM -SHSN BR OVC020=



000
FTUS41 KPBZ 270800 AAA
TAFAGC
TAF AMD
KAGC 270818Z 2708/2806 28003KT 3SM BR OVC045
     FM271500 28005KT 4SM BR OVC025
     FM271800 29008KT 4SM -SHSN OVC020=



000
FTUS41 KPBZ 270800 AAA
TAFPIT
TAF AMD
KPIT 270818Z 2708/2812 00000KT 3SM BR SCT006 OVC045
     FM271500 28005KT 4SM BR OVC025
     FM271800 29008KT 4SM -SHSN OVC020=



000
FTUS41 KPBZ 270700 AAA
TAFDUJ
TAF AMD
KDUJ 270729Z 2707/2806 35004KT P6SM OVC016
     FM270900 00000KT 4SM BR OVC009
     FM271400 30009KT 3SM -SHSN OVC015=



000
FTUS41 KPBZ 270700 AAA
TAFMGW
TAF AMD
KMGW 270728Z 2707/2806 12003KT 1SM BR OVC003
      TEMPO 2707/2711 4SM BR OVC012
     FM271500 33003KT 3SM -SG BR OVC008
     FM272000 30010KT 6SM -SHSN OVC015=



000
FTUS41 KPBZ 270700 AAA
TAFHLG
TAF AMD
KHLG 270728Z 2707/2806 00000KT 1/4SM FG OVC002
      TEMPO 2707/2711 1SM BR BKN004
     FM271500 27008KT 5SM BR OVC009
     FM271800 30010KT 5SM -SHSN OVC025=



000
FTUS41 KPBZ 270500 CCA
TAFHLG
TAF COR
KHLG 270550Z 2706/2806 00000KT 1/4SM FG BKN002 OVC040
     FM270800 00000KT 1/4SM FG OVC001
     FM271500 27008KT 5SM BR OVC009
     FM271800 30010KT 5SM -SHSN OVC025=



000
FTUS41 KPBZ 270500
TAFHLG
TAF
KHLG 270524Z 2706/2806 00000KT 1SM BR FEW002 OVC040
     FM270800 00000KT 1/4SM FG OVC001
     FM271500 27008KT 5SM BR OVC009
     FM271800 30010KT 5SM -SHSN OVC025=



000
FTUS41 KPBZ 270500
TAFLBE
TAF
KLBE 270524Z 2706/2806 00000KT 2SM BR SCT002 OVC006
     FM270800 00000KT 1/4SM FG OVC002
     FM271500 28010KT 4SM BR OVC012
     FM271900 29009KT 3SM -SHSN BR OVC020=



000
FTUS41 KPBZ 270500
TAFPIT
TAF
KPIT 270524Z 2706/2812 24003KT 3SM BR FEW006 OVC010
     FM270900 VRB02KT 1/2SM FG OVC003
     FM271500 28005KT 4SM BR OVC025
     FM271800 29008KT 4SM -SHSN OVC020=



000
FTUS41 KPBZ 270500
TAFZZV
TAF
KZZV 270524Z 2706/2806 00000KT P6SM OVC035
     FM271200 32006KT P6SM OVC030
     FM271500 29010KT P6SM OVC025=



000
FTUS41 KPBZ 270500
TAFDUJ
TAF
KDUJ 270524Z 2706/2806 00000KT P6SM OVC021
     FM270900 00000KT 4SM BR OVC009
     FM271400 30009KT 3SM -SHSN OVC015=



000
FTUS41 KPBZ 270500
TAFBVI
TAF
KBVI 270524Z 2706/2806 00000KT 4SM BR OVC008
     FM270900 00000KT 1SM BR OVC004
     FM271500 30010KT P6SM OVC015
     FM271800 29009KT 4SM -SHSN OVC020
      AMD NOT SKED=



000
FTUS41 KPBZ 270500
TAFAGC
TAF
KAGC 270524Z 2706/2806 30003KT 2SM BR SCT007 OVC040
     FM270900 VRB02KT 1/4SM FG OVC001
     FM271500 28005KT 4SM BR OVC025
     FM271800 29008KT 4SM -SHSN OVC020=



000
FTUS41 KPBZ 270500
TAFMGW
TAF
KMGW 270524Z 2706/2806 12003KT 1/2SM FG OVC002
      TEMPO 2706/2708 1SM BR
     FM271500 33003KT 3SM -SG BR OVC008
     FM272000 30010KT 6SM -SHSN OVC015=



000
FTUS41 KPBZ 270300 AAB
TAFHLG
TAF AMD
KHLG 270355Z 2704/2724 14003KT 1/2SM FG OVC005
     FM270600 33003KT 3SM BR OVC010
     FM271600 30010KT P6SM OVC025=



000
FTUS41 KPBZ 270300 AAB
TAFHLG
TAF AMD
KHLG 270355Z 2704/2724 14003KT 1/2SM FG OVC005
     FM270600 33003KT 3SM BR OVC010
     FM271600 30010KT P6SM OVC025=



000
FTUS41 KPBZ 270300 AAA
TAFHLG
TAF AMD
KHLG 270304Z 2703/2724 00000KT 2SM BR OVC003
     FM270600 33003KT 3SM BR OVC010
     FM271600 30010KT P6SM OVC025=



000
FTUS41 KPBZ 270300 AAA
TAFPIT
TAF AMD
KPIT 270304Z 2703/2806 33004KT 3SM BR OVC008
     FM270600 33003KT 3SM BR OVC010
     FM271600 30010KT P6SM OVC025=



000
FTUS41 KPBZ 270200 AAA
TAFBVI
TAF AMD
KBVI 270206Z 2702/2724 00000KT P6SM OVC035
     FM270600 00000KT P6SM OVC015
     FM271600 30010KT P6SM OVC025
      AMD NOT SKED=



000
FTUS41 KPBZ 270200 AAA
TAFZZV
TAF AMD
KZZV 270206Z 2702/2724 33003KT P6SM OVC040
     FM270600 33003KT P6SM OVC025
     FM271600 29006KT P6SM OVC015=



000
FTUS41 KPBZ 270200 AAA
TAFDUJ
TAF AMD
KDUJ 270206Z 2702/2724 35004KT P6SM OVC015
     FM270600 33003KT P6SM OVC008
     FM271600 30008KT P6SM OVC025=



000
FTUS41 KPBZ 262300
TAFLBE
TAF
KLBE 262333Z 2700/2724 00000KT 3SM BR OVC005
     FM270600 33003KT 3SM BR OVC010
     FM271600 28010KT P6SM OVC025=



000
FTUS41 KPBZ 262300
TAFDUJ
TAF
KDUJ 262333Z 2700/2724 35004KT 2SM BR OVC010
      TEMPO 2700/2702 OVC050
     FM270200 33003KT P6SM OVC008
     FM271600 30008KT P6SM OVC025=



000
FTUS41 KPBZ 262300
TAFPIT
TAF
KPIT 262333Z 2700/2806 33004KT 3SM BR OVC005
     FM270600 33003KT 3SM BR OVC010
     FM271600 30010KT P6SM OVC025=



000
FTUS41 KPBZ 262300
TAFHLG
TAF
KHLG 262333Z 2700/2724 00000KT 2SM BR OVC003
     FM270300 00000KT 2SM BR OVC006
     FM270600 33003KT 3SM BR OVC010
     FM271600 30010KT P6SM OVC025=



000
FTUS41 KPBZ 262300
TAFBVI
TAF
KBVI 262333Z 2700/2724 36003KT 5SM BR OVC005
     FM270600 33003KT 5SM BR OVC010
     FM271600 30010KT P6SM OVC025
      AMD NOT SKED 2702/2712=



000
FTUS41 KPBZ 262300
TAFMGW
TAF
KMGW 262333Z 2700/2724 00000KT 2SM BR OVC004
     FM270600 00000KT 2SM BR OVC006
     FM271200 33003KT 3SM BR OVC010
     FM271600 30010KT P6SM OVC025=



000
FTUS41 KPBZ 262300
TAFZZV
TAF
KZZV 262333Z 2700/2724 33003KT P6SM OVC025
     FM271600 29006KT P6SM OVC015=



000
FTUS41 KPBZ 262300
TAFAGC
TAF
KAGC 262333Z 2700/2724 34003KT 2SM BR OVC003
     FM271200 33003KT 3SM BR OVC010
     FM271600 30010KT P6SM OVC025=



000
FTUS41 KPBZ 262100 AAA
TAFLBE
TAF AMD
KLBE 262103Z 2621/2718 34003KT 1 1/2SM -SN OVC005
     FM270000 33003KT P6SM OVC010
     FM271700 30008KT P6SM OVC025=



000
FTUS41 KPBZ 262100 AAA
TAFDUJ
TAF AMD
KDUJ 262103Z 2621/2718 01004KT 3/4SM -SN OVC007
     FM262300 35004KT 2SM -SN OVC010
     FM270200 33003KT P6SM OVC010
     FM271700 30008KT P6SM OVC025=



000
FTUS41 KPBZ 262100 AAB
TAFMGW
TAF AMD
KMGW 262103Z 2621/2718 00000KT 2SM BR OVC003
     FM262300 VRB03KT 2SM BR OVC006
     FM270200 33003KT P6SM OVC015
     FM271700 30008KT P6SM OVC025=



000
FTUS41 KPBZ 262100 AAA
TAFZZV
TAF AMD
KZZV 262103Z 2621/2718 35004KT P6SM BKN025
     FM271600 31006KT P6SM OVC025=



000
FTUS41 KPBZ 262100 AAA
TAFHLG
TAF AMD
KHLG 262103Z 2621/2718 34004KT 2SM BR OVC004
     FM270100 33003KT P6SM OVC015
     FM271700 30008KT P6SM OVC025=



000
FTUS41 KPBZ 262000 AAB
TAFBVI
TAF AMD
KBVI 262037Z 2621/2718 36004KT 5SM BR OVC005
     FM270100 33003KT P6SM OVC015
     FM271700 30008KT P6SM OVC025=



000
FTUS41 KPBZ 262000 AAB
TAFPIT
TAF AMD
KPIT 262037Z 2621/2724 36005KT 3SM BR OVC005
     FM270100 33003KT P6SM OVC015
     FM271700 30008KT P6SM OVC025=



000
FTUS41 KPBZ 262000 AAC
TAFAGC
TAF AMD
KAGC 262037Z 2621/2718 36004KT 3/4SM -SN BR OVC003
     FM262200 33003KT 3SM BR OVC005
     FM270100 33003KT P6SM OVC015
     FM271700 30008KT P6SM OVC025=



000
FTUS41 KPBZ 261900 AAA
TAFMGW
TAF AMD
KMGW 261946Z 2620/2718 00000KT 3/4SM -SN BR OVC002
     FM262000 VRB03KT 2SM BR OVC010
     FM262200 VRB03KT P6SM OVC010
     FM270100 33003KT P6SM OVC015
     FM270900 VRB03KT 5SM BR OVC015
     FM271600 31007KT 5SM BR OVC020
     FM271700 30008KT P6SM OVC025=



000
FTUS41 KPBZ 261900 AAB
TAFAGC
TAF AMD
KAGC 261945Z 2620/2718 36004KT 3/4SM -SN BR OVC004
     FM262100 35004KT 1SM -SN BR OVC010
     FM262200 33003KT 5SM BR OVC010
     FM270100 33003KT P6SM OVC015
     FM270900 VRB03KT 5SM BR OVC015
     FM271600 31007KT 5SM BR OVC020
     FM271700 30008KT P6SM OVC025 PROB30 2717/2718 4SM -SN OVC025=



000
FTUS41 KPBZ 261800 AAA
TAFAGC
TAF AMD
KAGC 261853Z 2619/2718 35004KT 1/2SM -SN FG BKN004 BKN008 OVC015
     FM262000 35004KT 1SM -SN BR OVC010
     FM262200 33003KT 5SM BR OVC010
     FM270100 33003KT P6SM OVC015
     FM270900 VRB03KT 5SM BR OVC015
     FM271600 31007KT 5SM BR OVC020
     FM271700 30008KT P6SM OVC025 PROB30 2717/2718 4SM -SN OVC025=



000
FTUS41 KPBZ 261800 AAA
TAFPIT
TAF AMD
KPIT 261852Z 2619/2724 04004KT 2SM -SN BR BKN005 OVC015
     FM262000 VRB03KT 4SM -SN OVC015
     FM270100 33003KT P6SM OVC015
     FM270900 VRB03KT 5SM BR OVC015
     FM271600 31007KT 5SM BR OVC020
     FM271700 30008KT P6SM OVC025 PROB30 2717/2721 4SM -SN OVC025=



000
FTUS41 KPBZ 261800 AAA
TAFBVI
TAF AMD
KBVI 261851Z 2619/2718 36004KT 2SM -SN OVC003
     FM262000 VRB03KT 4SM -SN OVC015
     FM262100 33003KT P6SM OVC010
     FM270100 33003KT P6SM OVC015
     FM270900 VRB03KT 5SM BR OVC015
     FM271600 31007KT 5SM BR OVC020
     FM271700 30008KT P6SM OVC025 PROB30 2717/2718 4SM -SN OVC025=



000
FTUS41 KPBZ 261700
TAFZZV
TAF
KZZV 261739Z 2618/2718 35003KT P6SM OVC020
     FM262000 00000KT P6SM SCT030 OVC060
     FM270400 00000KT P6SM BKN030
     FM270800 00000KT 5SM BR BKN030
     FM271600 31006KT P6SM OVC025=



000
FTUS41 KPBZ 261700
TAFHLG
TAF
KHLG 261739Z 2618/2718 01004KT 1 1/2SM -SN OVC020
     FM262000 VRB03KT 4SM -SN OVC015
     FM262100 33003KT P6SM OVC010
     FM270100 33003KT P6SM OVC015
     FM270900 VRB03KT 5SM BR OVC015
     FM271600 31007KT 5SM BR OVC020
     FM271700 30008KT P6SM OVC025=



000
FTUS41 KPBZ 261700
TAFBVI
TAF
KBVI 261739Z 2618/2718 01004KT 1 1/2SM -SN OVC020
     FM262000 VRB03KT 4SM -SN OVC015
     FM262100 33003KT P6SM OVC010
     FM270100 33003KT P6SM OVC015
     FM270900 VRB03KT 5SM BR OVC015
     FM271600 31007KT 5SM BR OVC020
     FM271700 30008KT P6SM OVC025 PROB30 2717/2718 4SM -SN OVC025=



000
FTUS41 KPBZ 261700
TAFMGW
TAF
KMGW 261739Z 2618/2718 01004KT 1/4SM -SN FG OVC005
     FM261900 02005KT 1SM -SN BR OVC009
     FM262000 VRB03KT 3SM BR OVC010
     FM262200 VRB03KT P6SM OVC010
     FM270100 33003KT P6SM OVC015
     FM270900 VRB03KT 5SM BR OVC015
     FM271600 31007KT 5SM BR OVC020
     FM271700 30008KT P6SM OVC025=



000
FTUS41 KPBZ 261700
TAFAGC
TAF
KAGC 261739Z 2618/2718 01004KT 1/2SM SN OVC005
     FM261900 02005KT 1SM -SN BR OVC007
     FM262000 35004KT 3SM -SN OVC010
     FM262200 33003KT P6SM OVC010
     FM270100 33003KT P6SM OVC015
     FM270900 VRB03KT 5SM BR OVC015
     FM271600 31007KT 5SM BR OVC020
     FM271700 30008KT P6SM OVC025 PROB30 2717/2718 4SM -SN OVC025=



000
FTUS41 KPBZ 261700
TAFDUJ
TAF
KDUJ 261739Z 2618/2718 01004KT 1/2SM SN OVC015
     FM262100 02005KT 1SM -SN BR OVC007
     FM262300 35004KT 2SM -SN OVC010
     FM270200 33003KT P6SM OVC010
     FM270900 VRB03KT 5SM BR OVC015
     FM271600 31007KT 5SM BR OVC020
     FM271700 30008KT P6SM OVC025 PROB30 2717/2718 4SM -SN OVC025=



000
FTUS41 KPBZ 261700
TAFPIT
TAF
KPIT 261739Z 2618/2724 01004KT 3/4SM -SN OVC015
     FM261900 02005KT 1SM -SN BR OVC007
     FM262000 VRB03KT 4SM -SN OVC010
     FM262100 33003KT P6SM OVC010
     FM270100 33003KT P6SM OVC015
     FM270900 VRB03KT 5SM BR OVC015
     FM271600 31007KT 5SM BR OVC020
     FM271700 30008KT P6SM OVC025 PROB30 2717/2721 4SM -SN OVC025=



000
FTUS41 KPBZ 261700
TAFLBE
TAF
KLBE 261739Z 2618/2718 01004KT 1/2SM SN OVC003
     FM261900 02005KT 1SM -SN BR OVC007
     FM262000 35004KT 3SM -SN OVC010
     FM262200 33003KT P6SM OVC010
     FM270100 33003KT P6SM OVC015
     FM270900 VRB03KT 5SM BR OVC015
     FM271600 31007KT 5SM BR OVC020
     FM271700 30008KT P6SM OVC025 PROB30 2717/2718 4SM -SN OVC025=



000
FTUS41 KPBZ 261700 AAA
TAFLBE
TAF AMD
KLBE 261721Z 2617/2712 02005KT 1 1/2SM -SN BR OVC002
     FM262100 35004KT 4SM -SN OVC010
     FM262300 33003KT P6SM OVC010=



000
FTUS41 KPBZ 261700 AAA
TAFZZV
TAF AMD
KZZV 261700Z 2617/2712 03003KT P6SM OVC020
     FM261900 VRB03KT P6SM SCT030=



000
FTUS41 KPBZ 261600 AAA
TAFMGW
TAF AMD
KMGW 261659Z 2617/2712 01005KT 1/2SM SN OVC010
      TEMPO 2617/2621 1/2SM SN OVC004
     FM262100 VRB03KT 2SM -SN BR OVC010
     FM262300 VRB03KT 5SM BR OVC010=



000
FTUS41 KPBZ 261600 AAA
TAFHLG
TAF AMD
KHLG 261658Z 2617/2712 01004KT 1/2SM SN OVC010
     FM261700 02005KT 2SM -SN BR OVC015
     FM262100 VRB03KT P6SM OVC020=



000
FTUS41 KPBZ 261600 AAC
TAFAGC
TAF AMD
KAGC 261657Z 2617/2712 01004KT 1/2SM SN OVC005
     FM261900 02005KT 1SM -SN BR OVC007
     FM262000 35004KT 4SM -SN OVC010
     FM262200 33003KT P6SM OVC010=



000
FTUS41 KPBZ 261600 AAA
TAFBVI
TAF AMD
KBVI 261657Z 2617/2712 01004KT 2SM -SN OVC025
     FM261900 02005KT 1SM -SN BR OVC007
     FM262100 35004KT 4SM -SN OVC010
     FM262200 33003KT P6SM OVC010=



000
FTUS41 KPBZ 261600 AAC
TAFPIT
TAF AMD
KPIT 261656Z 2617/2718 01004KT 3/4SM -SN OVC015
     FM261800 02005KT 1SM -SN BR OVC007
     FM262000 35004KT 4SM -SN OVC010
     FM262200 33003KT P6SM OVC010=



000
FTUS41 KPBZ 261600 AAB
TAFAGC
TAF AMD
KAGC 261615Z 2616/2712 01004KT 1/2SM SN OVC005
     FM261700 02005KT 1SM -SN BR OVC007
     FM262000 35004KT 4SM -SN OVC010
     FM262200 33003KT P6SM OVC010=



000
FTUS41 KPBZ 261600 AAB
TAFPIT
TAF AMD
KPIT 261615Z 2616/2718 01004KT 1 1/2SM -SN OVC025
     FM261700 02005KT 1SM -SN BR OVC007
     FM262000 35004KT 4SM -SN OVC010
     FM262200 33003KT P6SM OVC010=



000
FTUS41 KPBZ 261500 AAA
TAFAGC
TAF AMD
KAGC 261526Z 2615/2712 01004KT 1/4SM +SN OVC015
     FM261700 02005KT 1SM -SN BR OVC007
     FM262000 35004KT 4SM -SN OVC010
     FM262200 33003KT P6SM OVC010=



000
FTUS41 KPBZ 261500 AAA
TAFPIT
TAF AMD
KPIT 261516Z 2615/2718 01004KT 3SM -SN OVC030
     FM261700 02005KT 1SM -SN BR OVC007
     FM262000 35004KT 4SM -SN OVC010
     FM262200 33003KT P6SM OVC010=



000
FTUS41 KPBZ 261100
TAFPIT
TAF
KPIT 261120Z 2612/2718 02005KT P6SM OVC120
     FM261500 01004KT 6SM -SN OVC035
     FM261700 02005KT 1SM -SN BR OVC007
     FM262000 35004KT 4SM -SN OVC010
     FM262200 33003KT P6SM OVC010=



000
FTUS41 KPBZ 261100
TAFZZV
TAF
KZZV 261120Z 2612/2712 35003KT P6SM OVC100
     FM261400 03003KT P6SM OVC050
     FM261900 VRB03KT P6SM SCT030=



000
FTUS41 KPBZ 261100
TAFDUJ
TAF
KDUJ 261120Z 2612/2712 00000KT P6SM BKN150
     FM261400 08005KT 5SM -SN OVC030
     FM261600 06005KT 1SM -SN BR OVC010
     FM270000 36005KT 3SM -SHSN BR OVC004=



000
FTUS41 KPBZ 261100
TAFAGC
TAF
KAGC 261120Z 2612/2712 02003KT P6SM OVC120
     FM261500 01004KT 6SM -SN OVC035
     FM261700 02005KT 1SM -SN BR OVC007
     FM262000 35004KT 4SM -SN OVC010
     FM262200 33003KT P6SM OVC010=



000
FTUS41 KPBZ 261100
TAFHLG
TAF
KHLG 261120Z 2612/2712 05003KT P6SM OVC150
     FM261500 01004KT 6SM -SN OVC035
     FM261700 02005KT 2SM -SN BR OVC015
     FM262100 VRB03KT P6SM OVC020=



000
FTUS41 KPBZ 261100
TAFLBE
TAF
KLBE 261120Z 2612/2712 02003KT P6SM OVC120
     FM261300 01004KT 5SM -SN OVC035
     FM261400 02005KT 1SM -SN BR OVC007
     FM262100 35004KT 4SM -SN OVC010
     FM262300 33003KT P6SM OVC010=



000
FTUS41 KPBZ 261100
TAFBVI
TAF
KBVI 261120Z 2612/2712 02003KT P6SM OVC120
     FM261700 01004KT 6SM -SN OVC035
     FM261800 02005KT 1SM -SN BR OVC007
     FM262100 35004KT 4SM -SN OVC010
     FM262200 33003KT P6SM OVC010=



000
FTUS41 KPBZ 261100
TAFMGW
TAF
KMGW 261120Z 2612/2712 36005KT 6SM -SN OVC035
     FM261400 01005KT 1SM -SN BR OVC010
      TEMPO 2615/2618 1/2SM SN OVC004
     FM262100 VRB03KT 2SM -SN BR OVC010
     FM262300 VRB03KT 5SM BR OVC010=



000
FTUS41 KPBZ 260800 AAA
TAFPIT
TAF AMD
KPIT 260856Z 2609/2712 02005KT P6SM BKN150 OVC200
     FM261300 01004KT 6SM -SN OVC035
     FM261600 02005KT 1SM -SN BR OVC007
     FM261900 35004KT 3SM -SN OVC010
     FM262200 33003KT P6SM OVC010=



    US Dept of Commerce
    National Oceanic and Atmospheric Administration
    National Weather Service
    1325 East West Highway
    Silver Spring, MD 20910
    Page Author: NWS Internet Services Team
Disclaimer
Information Quality
Credits
Glossary
Privacy Policy
Freedom of Information Act (FOIA)
About Us
Career Opportunities